Airport View

Enter AWOS ICAO identifier for current METAR.

ex. KFNL

KAPN 101554Z 24005KT 10SM BKN024 OVC047 28/22 A2992 RMK AO2 SLP129 T02780222

10 Aug 2020 16:01

Frequency: 120.675

Phone: 989-356-3662

Other Area AWOS: KPZQ - KOSC - CWNL - KGLR

TAF AMD KAPN 101528Z 1015/1112 22009KT P6SM BKN025 OVC040 FM101800 21007KT P6SM VCTS FEW040CB SCT060 FM102000 16005KT P6SM VCTS SCT040CB BKN060 FM102300 23005KT P6SM VCTS SCT040CB BKN060 FM110100 26005KT P6SM VCTS SCT040CB BKN100 FM110300 VRB04KT P6SM VCSH SCT035 OVC070 FM110600 29005KT P6SM BKN040 FM110800 VRB04KT P6SM SCT100